windsock image

Welcome to Bigfield Strip.

anemometer image
     

 Help for dials.  
 
Local Met:

Wind:   
10 Min average:  
13 ° / 2.5 kts (0.0)
359° / 0.8

Temperature:  
15.6°C C
Dew Point:  
8.4°C C
QNH:  
Trend:  
1023.0 mb mb
+0.1mb/hr
BigField Strip. This image updates approximately every minute, it can have a two minute delay.  
 

Humidity:  
62 %
Sunrise:   05:21z
Sunset:   18:42z
Updated:  
  UTC
 
   More met info, trends, radar, history etc. available here   

LUTON Metar   EGGW 051550Z 35009KT 9999 FEW047 14/07 Q1023
 
  TAF   2015/09/05 12:15 TAF EGGW 051103Z 0512/0612 01012KT 9999 FEW025 SCT035 BECMG 0521/0524 VRB03KT BECMG 0605/0608 31010KT
 
BENSON Metar   EGUB 051550Z AUTO 34006KT 9999 // FEW037/// BKN045/// 15/07 Q1023
 
  TAF   2015/09/04 15:39 TAF EGUB 041620Z 0415/0419 CNL
 
Big Field view 1 icon   Big Field view 2 icon   Big Field view 3 icon   Chart AL3a in PDF icon   Chart AL3a in Word icon

WARNING:
This information is provided by the Airstrip unofficial weather station, DO NOT depend on the data provided here for any purpose.
This page is updated for latest Metars & TAF's every 5 minutes. Refresh the browser to check for the lastest.
Page designed for a minimum browser size of 1024x768.
© Copyright 2015 BigField Strip. This page auto generated 16:11 UTC - 05/09/2015   Contact Us
Valid HTML 4.01 Transitional     Windows uptime: 5 Days 13 Hours 39 Minutes 24 Seconds    WD started: 02:37 31/08/15    Free memory: 1483MB     Valid CSS!